Time,TemperatureF,DewpointF,PressureIn,WindDirection,WindDirectionDegrees,WindSpeedMPH,WindSpeedGustMPH,Humidity,HourlyPrecipIn,Conditions,Clouds,dailyrainin,SoftwareType,DateUTC
2013-08-08 00:09:00,77.5,75.9,29.98,NNE,16,0.0,0.0,95,0.00,,,0.00,Weather View 32 v70,2013-08-08 04:09:00,
2013-08-08 00:19:00,77.6,76.0,29.98,NNE,16,0.0,0.0,95,0.00,,,0.00,Weather View 32 v70,2013-08-08 04:19:00,
2013-08-08 00:29:00,77.9,76.3,29.98,NNE,23,0.0,0.0,95,0.00,,,0.00,Weather View 32 v70,2013-08-08 04:29:00,
2013-08-08 00:39:00,77.9,76.3,29.98,NNE,23,0.0,0.0,95,0.00,,,0.00,Weather View 32 v70,2013-08-08 04:39:00,
2013-08-08 00:49:00,77.9,76.3,29.98,NNE,23,0.0,0.0,95,0.00,,,0.00,Weather View 32 v70,2013-08-08 04:49:00,
2013-08-08 00:59:00,77.6,76.0,29.97,NNE,13,0.0,0.0,95,0.00,,,0.00,Weather View 32 v70,2013-08-08 04:59:00,
2013-08-08 01:09:00,77.7,76.5,29.98,NNE,12,0.0,0.0,96,0.00,,,0.00,Weather View 32 v70,2013-08-08 05:09:00,
2013-08-08 01:19:00,77.4,76.2,29.97,NNE,13,0.0,0.0,96,0.00,,,0.00,Weather View 32 v70,2013-08-08 05:19:00,
2013-08-08 01:29:00,76.1,74.6,29.97,NNE,13,0.0,0.0,95,0.00,,,0.00,Weather View 32 v70,2013-08-08 05:29:00,
2013-08-08 01:39:00,75.3,73.8,29.97,NNE,13,0.0,0.0,95,0.00,,,0.00,Weather View 32 v70,2013-08-08 05:39:00,
2013-08-08 01:50:00,75.2,74.0,29.97,NNE,13,0.0,0.0,96,0.00,,,0.00,Weather View 32 v70,2013-08-08 05:50:00,
2013-08-08 01:59:00,75.2,74.0,29.97,NNE,13,0.0,0.0,96,0.00,,,0.00,Weather View 32 v70,2013-08-08 05:59:00,
2013-08-08 02:09:00,75.1,73.9,29.97,NNE,13,0.0,0.0,96,0.00,,,0.00,Weather View 32 v70,2013-08-08 06:09:00,
2013-08-08 02:19:00,75.4,74.2,29.97,NNE,13,0.0,0.0,96,0.00,,,0.00,Weather View 32 v70,2013-08-08 06:19:00,
2013-08-08 02:29:00,75.1,73.9,29.97,NNE,13,0.0,0.0,96,0.00,,,0.00,Weather View 32 v70,2013-08-08 06:29:00,
2013-08-08 02:39:00,75.3,74.1,29.97,NNE,13,0.0,0.0,96,0.00,,,0.00,Weather View 32 v70,2013-08-08 06:39:00,
2013-08-08 02:49:00,75.7,74.8,29.97,NNE,13,0.0,0.0,97,0.00,,,0.00,Weather View 32 v70,2013-08-08 06:49:00,
2013-08-08 02:50:00,75.7,74.8,29.97,NNE,13,0.0,0.0,97,0.00,,,0.00,Weather View 32 v70,2013-08-08 06:50:00,
2013-08-08 02:59:00,75.5,74.6,29.97,NNE,13,0.0,0.0,97,0.00,,,0.00,Weather View 32 v70,2013-08-08 06:59:00,
2013-08-08 03:09:00,75.2,74.0,29.96,NNE,13,0.0,0.0,96,0.00,,,0.00,Weather View 32 v70,2013-08-08 07:09:00,
2013-08-08 03:19:00,76.0,75.1,29.96,NNE,15,0.0,0.0,97,0.00,,,0.00,Weather View 32 v70,2013-08-08 07:19:00,
2013-08-08 03:29:00,77.3,76.4,29.95,NE,34,0.0,0.0,97,0.00,,,0.00,Weather View 32 v70,2013-08-08 07:29:00,
2013-08-08 03:39:00,77.7,76.8,29.95,NE,37,0.0,0.0,97,0.00,,,0.00,Weather View 32 v70,2013-08-08 07:39:00,
2013-08-08 03:49:00,77.9,77.0,29.96,NE,38,0.0,0.0,97,0.00,,,0.00,Weather View 32 v70,2013-08-08 07:49:00,
2013-08-08 03:51:00,77.9,77.0,29.96,NE,38,0.0,0.0,97,0.00,,,0.00,Weather View 32 v70,2013-08-08 07:51:00,
2013-08-08 03:59:00,76.0,74.5,29.95,NNE,31,0.0,0.0,95,0.00,,,0.00,Weather View 32 v70,2013-08-08 07:59:00,
2013-08-08 04:09:00,75.7,74.5,29.96,NNE,31,0.0,0.0,96,0.00,,,0.00,Weather View 32 v70,2013-08-08 08:09:00,
2013-08-08 04:19:00,75.3,74.1,29.95,NNE,31,0.0,0.0,96,0.00,,,0.00,Weather View 32 v70,2013-08-08 08:19:00,
2013-08-08 04:29:00,75.9,75.0,29.95,NNE,30,0.0,0.0,97,0.00,,,0.00,Weather View 32 v70,2013-08-08 08:29:00,
2013-08-08 04:39:00,77.7,76.8,29.95,NE,40,0.0,0.0,97,0.00,,,0.00,Weather View 32 v70,2013-08-08 08:39:00,
2013-08-08 04:49:00,77.5,75.9,29.95,NE,41,0.0,0.0,95,0.00,,,0.00,Weather View 32 v70,2013-08-08 08:49:00,
2013-08-08 04:51:00,77.5,75.9,29.95,NE,41,0.0,0.0,95,0.00,,,0.00,Weather View 32 v70,2013-08-08 08:51:00,
2013-08-08 04:59:00,76.6,75.7,29.95,NE,41,0.0,0.0,97,0.00,,,0.00,Weather View 32 v70,2013-08-08 08:59:00,
2013-08-08 05:09:00,78.0,77.1,29.95,NE,45,0.0,0.0,97,0.00,,,0.00,Weather View 32 v70,2013-08-08 09:09:00,
2013-08-08 05:19:00,77.6,76.4,29.95,NE,42,0.0,0.0,96,0.00,,,0.00,Weather View 32 v70,2013-08-08 09:19:00,
2013-08-08 05:29:00,77.2,76.0,29.95,NE,42,0.0,0.0,96,0.00,,,0.00,Weather View 32 v70,2013-08-08 09:29:00,
2013-08-08 05:39:00,76.0,74.5,29.96,NE,41,0.0,0.0,95,0.00,,,0.00,Weather View 32 v70,2013-08-08 09:39:00,
2013-08-08 05:49:00,75.9,75.0,29.96,NE,38,0.0,0.0,97,0.00,,,0.00,Weather View 32 v70,2013-08-08 09:49:00,
2013-08-08 05:52:00,75.9,75.0,29.96,NE,38,0.0,0.0,97,0.00,,,0.00,Weather View 32 v70,2013-08-08 09:52:00,
2013-08-08 05:59:00,75.6,74.4,29.96,NE,38,0.0,0.0,96,0.00,,,0.00,Weather View 32 v70,2013-08-08 09:59:00,
2013-08-08 06:09:00,75.6,74.4,29.96,NE,38,0.0,0.0,96,0.00,,,0.00,Weather View 32 v70,2013-08-08 10:09:00,
2013-08-08 06:19:00,75.1,73.9,29.96,NE,38,0.0,0.0,96,0.00,,,0.00,Weather View 32 v70,2013-08-08 10:19:00,
2013-08-08 06:29:00,75.2,74.0,29.96,NE,37,0.0,0.0,96,0.00,,,0.00,Weather View 32 v70,2013-08-08 10:29:00,
2013-08-08 06:39:00,76.1,75.2,29.96,NE,36,0.0,0.0,97,0.00,,,0.00,Weather View 32 v70,2013-08-08 10:39:00,
2013-08-08 06:49:00,77.1,76.2,29.96,NE,37,0.0,0.0,97,0.00,,,0.00,Weather View 32 v70,2013-08-08 10:49:00,
2013-08-08 06:52:00,77.1,76.2,29.96,NE,37,0.0,0.0,97,0.00,,,0.00,Weather View 32 v70,2013-08-08 10:52:00,
2013-08-08 06:59:00,77.3,76.4,29.96,NE,37,0.0,0.0,97,0.00,,,0.00,Weather View 32 v70,2013-08-08 10:59:00,
2013-08-08 07:09:00,75.4,74.2,29.97,NE,37,0.0,0.0,96,0.00,,,0.00,Weather View 32 v70,2013-08-08 11:09:00,
2013-08-08 07:19:00,76.9,76.0,29.97,NE,37,0.0,0.0,97,0.00,,,0.00,Weather View 32 v70,2013-08-08 11:19:00,
2013-08-08 07:29:00,77.5,76.6,29.97,NE,37,0.0,0.0,97,0.00,,,0.00,Weather View 32 v70,2013-08-08 11:29:00,
2013-08-08 07:39:00,78.1,77.2,29.97,NE,37,0.0,0.0,97,0.00,,,0.00,Weather View 32 v70,2013-08-08 11:39:00,
2013-08-08 07:49:00,78.4,77.2,29.97,NE,37,0.0,0.0,96,0.00,,,0.00,Weather View 32 v70,2013-08-08 11:49:00,
2013-08-08 07:53:00,78.4,77.2,29.97,NE,37,0.0,0.0,96,0.00,,,0.00,Weather View 32 v70,2013-08-08 11:53:00,
2013-08-08 07:59:00,78.7,77.1,29.98,NE,41,0.0,0.0,95,0.00,,,0.00,Weather View 32 v70,2013-08-08 11:59:00,
2013-08-08 08:09:00,79.1,77.2,29.98,NE,41,0.0,0.0,94,0.00,,,0.00,Weather View 32 v70,2013-08-08 12:09:00,
2013-08-08 08:19:00,79.5,77.6,29.98,NE,45,0.0,0.0,94,0.00,,,0.00,Weather View 32 v70,2013-08-08 12:19:00,
2013-08-08 08:29:00,80.4,78.2,29.98,NE,48,0.0,0.0,93,0.00,,,0.00,Weather View 32 v70,2013-08-08 12:29:00,
2013-08-08 08:39:00,80.9,78.3,29.98,NE,49,0.0,0.0,92,0.00,,,0.00,Weather View 32 v70,2013-08-08 12:39:00,
2013-08-08 08:49:00,81.2,78.6,29.98,ENE,57,0.0,0.0,92,0.00,,,0.00,Weather View 32 v70,2013-08-08 12:49:00,
2013-08-08 08:54:00,81.2,78.6,29.98,ENE,57,0.0,0.0,92,0.00,,,0.00,Weather View 32 v70,2013-08-08 12:54:00,
2013-08-08 08:59:00,81.5,78.6,29.99,NE,55,0.0,0.0,91,0.00,,,0.00,Weather View 32 v70,2013-08-08 12:59:00,
2013-08-08 09:09:00,82.0,78.8,29.99,NE,53,0.0,0.0,90,0.00,,,0.00,Weather View 32 v70,2013-08-08 13:09:00,
2013-08-08 09:19:00,82.3,78.4,29.99,NE,54,0.0,0.0,88,0.00,,,0.00,Weather View 32 v70,2013-08-08 13:19:00,
2013-08-08 09:29:00,82.6,78.3,29.99,ENE,59,0.0,0.0,87,0.00,,,0.00,Weather View 32 v70,2013-08-08 13:29:00,
2013-08-08 09:39:00,82.9,77.5,29.99,NE,55,0.0,0.0,84,0.00,,,0.00,Weather View 32 v70,2013-08-08 13:39:00,
2013-08-08 09:49:00,83.5,78.1,30.00,NE,55,0.0,3.0,84,0.00,,,0.00,Weather View 32 v70,2013-08-08 13:49:00,
2013-08-08 09:54:00,83.5,78.1,30.00,NE,55,0.0,3.0,84,0.00,,,0.00,Weather View 32 v70,2013-08-08 13:54:00,
2013-08-08 09:59:00,83.9,77.8,30.00,NE,53,0.0,3.0,82,0.00,,,0.00,Weather View 32 v70,2013-08-08 13:59:00,
2013-08-08 10:09:00,84.1,77.2,30.00,NE,54,0.0,5.0,80,0.00,,,0.00,Weather View 32 v70,2013-08-08 14:09:00,
2013-08-08 10:19:00,84.1,76.8,30.00,NE,56,0.0,5.0,79,0.00,,,0.00,Weather View 32 v70,2013-08-08 14:19:00,
2013-08-08 10:29:00,84.8,77.5,30.00,NE,54,0.0,5.0,79,0.00,,,0.00,Weather View 32 v70,2013-08-08 14:29:00,
2013-08-08 10:39:00,85.3,77.2,30.00,ENE,57,0.0,5.0,77,0.00,,,0.00,Weather View 32 v70,2013-08-08 14:39:00,
2013-08-08 10:49:00,85.1,76.6,30.00,ENE,59,0.0,8.0,76,0.00,,,0.00,Weather View 32 v70,2013-08-08 14:49:00,
2013-08-08 10:55:00,85.1,76.6,30.00,ENE,59,0.0,8.0,76,0.00,,,0.00,Weather View 32 v70,2013-08-08 14:55:00,
2013-08-08 10:59:00,85.6,76.7,30.00,ENE,59,0.0,9.0,75,0.00,,,0.00,Weather View 32 v70,2013-08-08 14:59:00,
2013-08-08 11:09:00,85.6,75.9,30.00,ENE,72,4.0,9.0,73,0.00,,,0.00,Weather View 32 v70,2013-08-08 15:09:00,
2013-08-08 11:19:00,85.9,77.4,30.00,ENE,60,0.0,9.0,76,0.00,,,0.00,Weather View 32 v70,2013-08-08 15:19:00,
2013-08-08 11:29:00,86.3,77.0,30.01,ENE,61,0.0,9.0,74,0.00,,,0.00,Weather View 32 v70,2013-08-08 15:29:00,
2013-08-08 11:39:00,86.6,76.0,30.01,ENE,61,2.0,9.0,71,0.00,,,0.00,Weather View 32 v70,2013-08-08 15:39:00,
2013-08-08 11:49:00,87.0,77.3,30.01,ENE,62,1.0,9.0,73,0.00,,,0.00,Weather View 32 v70,2013-08-08 15:49:00,
2013-08-08 11:55:00,87.0,77.3,30.01,ENE,62,1.0,9.0,73,0.00,,,0.00,Weather View 32 v70,2013-08-08 15:55:00,
2013-08-08 11:59:00,87.1,76.5,30.01,ENE,61,0.0,9.0,71,0.00,,,0.00,Weather View 32 v70,2013-08-08 15:59:00,
2013-08-08 12:09:00,87.7,76.6,30.01,ENE,61,2.0,9.0,70,0.00,,,0.00,Weather View 32 v70,2013-08-08 16:09:00,
2013-08-08 12:19:00,87.7,75.8,30.00,SSE,151,1.0,9.0,68,0.00,,,0.00,Weather View 32 v70,2013-08-08 16:19:00,
2013-08-08 12:29:00,87.9,75.5,30.00,East,97,1.0,9.0,67,0.00,,,0.00,Weather View 32 v70,2013-08-08 16:29:00,
2013-08-08 12:39:00,88.2,76.7,30.00,East,85,5.0,9.0,69,0.00,,,0.00,Weather View 32 v70,2013-08-08 16:39:00,
2013-08-08 12:49:00,88.2,76.2,30.00,East,94,1.0,9.0,68,0.00,,,0.00,Weather View 32 v70,2013-08-08 16:49:00,
2013-08-08 12:56:00,88.2,76.2,30.00,East,94,1.0,9.0,68,0.00,,,0.00,Weather View 32 v70,2013-08-08 16:56:00,
2013-08-08 12:59:00,88.5,75.2,30.00,SE,125,2.0,9.0,65,0.00,,,0.00,Weather View 32 v70,2013-08-08 16:59:00,
2013-08-08 13:09:00,88.6,77.1,30.00,SE,133,2.0,9.0,69,0.00,,,0.00,Weather View 32 v70,2013-08-08 17:09:00,
2013-08-08 13:19:00,88.7,75.4,30.00,SE,142,1.0,7.0,65,0.00,,,0.00,Weather View 32 v70,2013-08-08 17:19:00,
2013-08-08 13:29:00,89.0,76.1,29.99,SE,144,4.0,7.0,66,0.00,,,0.00,Weather View 32 v70,2013-08-08 17:29:00,
2013-08-08 13:39:00,88.1,77.5,29.99,East,96,5.0,7.0,71,0.00,,,0.00,Weather View 32 v70,2013-08-08 17:39:00,
2013-08-08 13:49:00,88.2,78.0,29.99,SE,129,0.0,7.0,72,0.00,,,0.00,Weather View 32 v70,2013-08-08 17:49:00,
2013-08-08 13:57:00,88.2,78.0,29.99,SE,129,0.0,7.0,72,0.00,,,0.00,Weather View 32 v70,2013-08-08 17:57:00,
2013-08-08 13:59:00,89.2,76.8,29.99,SE,136,2.0,6.0,67,0.00,,,0.00,Weather View 32 v70,2013-08-08 17:59:00,
2013-08-08 14:09:00,89.8,76.4,29.98,ESE,110,0.0,7.0,65,0.00,,,0.00,Weather View 32 v70,2013-08-08 18:09:00,
2013-08-08 14:19:00,89.6,77.1,29.98,ESE,112,2.0,7.0,67,0.00,,,0.00,Weather View 32 v70,2013-08-08 18:19:00,
2013-08-08 14:29:00,89.7,75.4,29.98,ESE,112,0.0,8.0,63,0.00,,,0.00,Weather View 32 v70,2013-08-08 18:29:00,
2013-08-08 14:39:00,89.9,76.0,29.98,East,85,3.0,8.0,64,0.00,,,0.00,Weather View 32 v70,2013-08-08 18:39:00,
2013-08-08 14:49:00,90.1,76.2,29.97,ESE,120,0.0,9.0,64,0.00,,,0.00,Weather View 32 v70,2013-08-08 18:49:00,
2013-08-08 14:58:00,90.1,76.2,29.97,ESE,120,0.0,9.0,64,0.00,,,0.00,Weather View 32 v70,2013-08-08 18:58:00,
2013-08-08 14:59:00,90.2,74.4,29.97,SE,126,0.0,9.0,60,0.00,,,0.00,Weather View 32 v70,2013-08-08 18:59:00,
2013-08-08 15:09:00,90.2,76.3,29.97,SE,132,2.0,9.0,64,0.00,,,0.00,Weather View 32 v70,2013-08-08 19:09:00,
2013-08-08 15:19:00,90.3,75.9,29.97,ENE,78,3.0,9.0,63,0.00,,,0.00,Weather View 32 v70,2013-08-08 19:19:00,
2013-08-08 15:29:00,90.4,77.0,29.97,East,80,6.0,9.0,65,0.00,,,0.00,Weather View 32 v70,2013-08-08 19:29:00,
2013-08-08 15:39:00,89.5,76.6,29.97,East,85,1.0,9.0,66,0.00,,,0.00,Weather View 32 v70,2013-08-08 19:39:00,
2013-08-08 15:49:00,89.5,77.0,29.96,East,95,2.0,8.0,67,0.00,,,0.00,Weather View 32 v70,2013-08-08 19:49:00,
2013-08-08 15:58:00,89.5,77.0,29.96,East,95,2.0,8.0,67,0.00,,,0.00,Weather View 32 v70,2013-08-08 19:58:00,
2013-08-08 15:59:00,89.0,77.5,29.96,ENE,61,7.0,8.0,69,0.00,,,0.00,Weather View 32 v70,2013-08-08 19:59:00,
2013-08-08 16:09:00,89.4,76.0,29.95,SE,124,0.0,8.0,65,0.00,,,0.00,Weather View 32 v70,2013-08-08 20:09:00,
2013-08-08 16:19:00,89.9,76.5,29.96,SE,126,2.0,8.0,65,0.00,,,0.00,Weather View 32 v70,2013-08-08 20:19:00,
2013-08-08 16:29:00,90.3,77.3,29.96,North,355,2.0,9.0,66,0.00,,,0.00,Weather View 32 v70,2013-08-08 20:29:00,
2013-08-08 16:39:00,89.1,77.1,29.96,ENE,69,1.0,9.0,68,0.00,,,0.00,Weather View 32 v70,2013-08-08 20:39:00,
2013-08-08 16:49:00,88.6,77.5,29.96,NE,46,5.0,9.0,70,0.00,,,0.00,Weather View 32 v70,2013-08-08 20:49:00,
2013-08-08 16:59:00,88.6,77.5,29.96,NE,46,5.0,9.0,70,0.00,,,0.00,Weather View 32 v70,2013-08-08 20:59:00,
2013-08-08 17:09:00,88.7,77.6,29.96,ENE,57,2.0,9.0,70,0.00,,,0.00,Weather View 32 v70,2013-08-08 21:09:00,
2013-08-08 17:19:00,88.6,77.9,29.96,NE,43,7.0,9.0,71,0.00,,,0.00,Weather View 32 v70,2013-08-08 21:19:00,
2013-08-08 17:29:00,88.3,77.2,29.95,ENE,75,4.0,9.0,70,0.00,,,0.00,Weather View 32 v70,2013-08-08 21:29:00,
2013-08-08 17:39:00,88.1,77.5,29.96,ENE,63,5.0,11.0,71,0.00,,,0.00,Weather View 32 v70,2013-08-08 21:39:00,
2013-08-08 17:49:00,88.5,78.3,29.96,ENE,65,7.0,11.0,72,0.00,,,0.00,Weather View 32 v70,2013-08-08 21:49:00,
2013-08-08 17:59:00,87.8,78.0,29.96,ENE,68,9.0,13.0,73,0.00,,,0.00,Weather View 32 v70,2013-08-08 21:59:00,
2013-08-08 18:09:00,87.1,77.3,29.96,East,101,6.0,14.0,73,0.00,,,0.00,Weather View 32 v70,2013-08-08 22:09:00,
2013-08-08 18:29:00,85.7,76.0,29.95,ENE,76,2.0,14.0,73,0.00,,,0.00,Weather View 32 v70,2013-08-08 22:29:00,
2013-08-08 18:39:00,85.3,76.8,29.96,ESE,102,0.0,14.0,76,0.00,,,0.00,Weather View 32 v70,2013-08-08 22:39:00,
2013-08-08 18:49:00,85.1,76.6,29.96,ESE,110,2.0,14.0,76,0.00,,,0.00,Weather View 32 v70,2013-08-08 22:49:00,
2013-08-08 19:00:00,84.8,76.0,29.96,ENE,73,2.0,14.0,75,0.00,,,0.00,Weather View 32 v70,2013-08-08 23:00:00,
2013-08-08 19:09:00,84.7,75.5,29.96,ESE,104,0.0,10.0,74,0.00,,,0.00,Weather View 32 v70,2013-08-08 23:09:00,
2013-08-08 19:19:00,84.6,76.2,29.96,East,94,2.0,9.0,76,0.00,,,0.00,Weather View 32 v70,2013-08-08 23:19:00,
2013-08-08 19:29:00,84.3,76.3,29.97,East,90,0.0,7.0,77,0.00,,,0.00,Weather View 32 v70,2013-08-08 23:29:00,
2013-08-08 19:59:00,83.4,76.5,29.97,East,96,0.0,5.0,80,0.00,,,0.00,Weather View 32 v70,2013-08-08 23:59:00,
2013-08-08 20:00:00,83.4,76.5,29.97,East,96,0.0,5.0,80,0.00,,,0.00,Weather View 32 v70,2013-08-09 00:00:00,
2013-08-08 20:09:00,82.6,75.4,29.98,East,96,0.0,5.0,79,0.00,,,0.00,Weather View 32 v70,2013-08-09 00:09:00,
2013-08-08 20:19:00,80.9,75.2,29.98,East,96,0.0,5.0,83,0.00,,,0.00,Weather View 32 v70,2013-08-09 00:19:00,
2013-08-08 20:29:00,80.2,75.3,29.99,East,96,0.0,3.0,85,0.00,,,0.00,Weather View 32 v70,2013-08-09 00:29:00,
2013-08-08 20:39:00,80.1,75.5,29.99,East,96,0.0,3.0,86,0.00,,,0.00,Weather View 32 v70,2013-08-09 00:39:00,
2013-08-08 20:49:00,80.0,75.4,30.00,East,95,0.0,3.0,86,0.00,,,0.00,Weather View 32 v70,2013-08-09 00:49:00,
2013-08-08 20:59:00,80.1,75.9,30.00,North,5,0.0,2.0,87,0.00,,,0.00,Weather View 32 v70,2013-08-09 00:59:00,
2013-08-08 21:01:00,80.1,75.9,30.00,North,5,0.0,2.0,87,0.00,,,0.00,Weather View 32 v70,2013-08-09 01:01:00,
2013-08-08 21:09:00,81.0,76.4,30.01,NE,55,0.0,2.0,86,0.00,,,0.00,Weather View 32 v70,2013-08-09 01:09:00,
2013-08-08 21:19:00,81.4,76.8,30.01,NE,55,0.0,2.0,86,0.00,,,0.00,Weather View 32 v70,2013-08-09 01:19:00,
2013-08-08 21:29:00,81.5,76.9,30.02,ENE,59,0.0,1.0,86,0.00,,,0.00,Weather View 32 v70,2013-08-09 01:29:00,
2013-08-08 21:39:00,81.3,76.7,30.02,ENE,58,0.0,0.0,86,0.00,,,0.00,Weather View 32 v70,2013-08-09 01:39:00,
2013-08-08 21:49:00,81.3,76.7,30.03,ENE,69,0.0,0.0,86,0.00,,,0.00,Weather View 32 v70,2013-08-09 01:49:00,
2013-08-08 21:59:00,81.1,76.8,30.03,ENE,75,0.0,0.0,87,0.00,,,0.00,Weather View 32 v70,2013-08-09 01:59:00,
2013-08-08 22:02:00,81.1,76.8,30.03,ENE,75,0.0,0.0,87,0.00,,,0.00,Weather View 32 v70,2013-08-09 02:02:00,
2013-08-08 22:09:00,81.0,76.7,30.03,ENE,65,0.0,0.0,87,0.00,,,0.00,Weather View 32 v70,2013-08-09 02:09:00,
2013-08-08 22:19:00,80.8,76.9,30.03,East,81,0.0,0.0,88,0.00,,,0.00,Weather View 32 v70,2013-08-09 02:19:00,
2013-08-08 22:39:00,80.8,76.5,30.04,East,92,0.0,0.0,87,0.00,,,0.00,Weather View 32 v70,2013-08-09 02:39:00,
2013-08-08 22:49:00,80.9,77.0,30.04,East,82,0.0,0.0,88,0.00,,,0.00,Weather View 32 v70,2013-08-09 02:49:00,
2013-08-08 22:59:00,80.7,76.8,30.04,East,80,0.0,0.0,88,0.00,,,0.00,Weather View 32 v70,2013-08-09 02:59:00,
2013-08-08 23:19:00,80.5,76.6,30.04,East,84,0.0,0.0,88,0.00,,,0.00,Weather View 32 v70,2013-08-09 03:19:00,
2013-08-08 23:29:00,80.4,76.8,30.04,East,90,0.0,0.0,89,0.00,,,0.00,Weather View 32 v70,2013-08-09 03:29:00,
2013-08-08 23:39:00,80.3,76.7,30.04,East,90,0.0,0.0,89,0.00,,,0.00,Weather View 32 v70,2013-08-09 03:39:00,
2013-08-08 23:49:00,80.2,77.0,30.04,East,80,0.0,0.0,90,0.00,,,0.00,Weather View 32 v70,2013-08-09 03:49:00,
2013-08-08 23:59:00,80.2,77.0,30.04,ESE,109,0.0,0.0,90,0.00,,,0.00,Weather View 32 v70,2013-08-09 03:59:00,